createdAt,value
2018-12-31T00:00:37.846Z,102743.24
2018-12-31T00:03:07.520Z,102739.70
2018-12-31T00:05:37.042Z,102736.51
2018-12-31T00:08:06.567Z,102735.16
2018-12-31T00:10:36.230Z,102746.48
2018-12-31T00:13:05.820Z,102748.31
2018-12-31T00:15:36.063Z,102739.27
2018-12-31T00:18:05.731Z,102736.09
2018-12-31T00:20:35.348Z,102738.34
2018-12-31T00:23:05.085Z,102745.52
2018-12-31T00:25:34.861Z,102738.34
2018-12-31T00:28:04.425Z,102742.81
2018-12-31T00:30:33.943Z,102750.51
2018-12-31T00:33:03.598Z,102744.17
2018-12-31T00:35:33.306Z,102749.09
2018-12-31T00:38:03.140Z,102745.94
2018-12-31T00:40:32.629Z,102753.57
2018-12-31T00:43:02.548Z,102757.62
2018-12-31T00:45:32.144Z,102754.05
2018-12-31T00:48:01.859Z,102755.83
2018-12-31T00:50:31.464Z,102749.94
2018-12-31T00:53:01.004Z,102758.53
2018-12-31T00:55:30.532Z,102752.70
2018-12-31T00:58:00.354Z,102758.98
2018-12-31T01:00:30.366Z,102757.62
2018-12-31T01:03:00.214Z,102750.42
2018-12-31T01:05:29.741Z,102743.66
2018-12-31T01:07:59.471Z,102755.83
2018-12-31T01:10:29.330Z,102754.89
2018-12-31T01:12:58.983Z,102757.17
2018-12-31T01:15:28.475Z,102761.23
2018-12-31T01:17:58.148Z,102754.47
2018-12-31T01:20:27.544Z,102755.83
2018-12-31T01:22:57.237Z,102751.34
2018-12-31T01:25:27.240Z,102754.98
2018-12-31T01:27:56.810Z,102763.09
2018-12-31T01:30:26.417Z,102778.38
2018-12-31T01:32:56.226Z,102771.66
2018-12-31T01:35:25.905Z,102745.97
2018-12-31T01:37:55.386Z,102757.20
2018-12-31T01:40:25.026Z,102773.22
2018-12-31T01:42:54.900Z,102773.73
2018-12-31T01:45:24.520Z,102772.89
2018-12-31T01:47:54.457Z,102767.48
2018-12-31T01:50:24.028Z,102746.27
2018-12-31T01:52:53.464Z,102744.08
2018-12-31T01:55:23.066Z,102741.83
2018-12-31T01:57:52.732Z,102745.04
2018-12-31T02:00:22.526Z,102754.98
2018-12-31T02:02:52.018Z,102750.51
2018-12-31T02:05:21.558Z,102758.53
2018-12-31T02:07:51.576Z,102763.52
2018-12-31T02:10:21.098Z,102767.06
2018-12-31T02:12:50.697Z,102758.98
2018-12-31T02:15:20.241Z,102753.15
2018-12-31T02:17:50.265Z,102750.93
2018-12-31T02:20:19.887Z,102765.73
2018-12-31T02:22:49.916Z,102766.73
2018-12-31T02:25:19.584Z,102771.20
2018-12-31T02:27:49.158Z,102762.61
2018-12-31T02:30:18.863Z,102766.25
2018-12-31T02:32:48.846Z,102776.61
2018-12-31T02:35:18.494Z,102782.89
2018-12-31T02:37:47.988Z,102794.61
2018-12-31T02:40:17.574Z,102800.88
2018-12-31T02:42:47.109Z,102799.11
2018-12-31T02:45:18.399Z,102793.67
2018-12-31T02:47:48.250Z,102790.55
2018-12-31T02:50:17.953Z,102790.97
2018-12-31T02:52:47.524Z,102790.48
2018-12-31T02:55:17.631Z,102795.45
2018-12-31T02:57:48.054Z,102795.45
2018-12-31T03:00:17.891Z,102792.74
2018-12-31T03:02:47.479Z,102796.31
2018-12-31T03:05:16.963Z,102792.27
2018-12-31T03:07:46.777Z,102785.56
2018-12-31T03:10:17.200Z,102781.45
2018-12-31T03:12:48.157Z,102775.17
2018-12-31T03:15:19.197Z,102776.52
2018-12-31T03:17:49.227Z,102773.82
2018-12-31T03:20:19.470Z,102775.59
2018-12-31T03:22:49.200Z,102776.04
2018-12-31T03:25:19.208Z,102775.63
2018-12-31T03:27:49.170Z,102773.82
2018-12-31T03:30:18.783Z,102771.56
2018-12-31T03:32:49.156Z,102768.41
2018-12-31T03:35:20.559Z,102768.41
2018-12-31T03:37:51.571Z,102764.36
2018-12-31T03:40:21.736Z,102758.95
2018-12-31T03:42:51.930Z,102754.83
2018-12-31T03:45:21.853Z,102749.94
2018-12-31T03:47:51.878Z,102746.78
2018-12-31T03:50:21.725Z,102749.48
2018-12-31T03:52:51.424Z,102739.55
2018-12-31T03:55:21.492Z,102746.30
2018-12-31T03:57:51.399Z,102742.73
2018-12-31T04:00:21.319Z,102752.19
2018-12-31T04:02:51.437Z,102749.00
2018-12-31T04:05:21.369Z,102752.61
2018-12-31T04:07:53.076Z,102749.00
2018-12-31T04:10:22.548Z,102753.97
2018-12-31T04:12:52.758Z,102760.72
2018-12-31T04:15:22.981Z,102758.47
2018-12-31T04:17:53.024Z,102758.95
2018-12-31T04:20:22.903Z,102757.59
2018-12-31T04:22:52.777Z,102766.13
2018-12-31T04:25:22.869Z,102770.19
2018-12-31T04:27:52.507Z,102756.25
2018-12-31T04:30:23.211Z,102757.59
2018-12-31T04:32:53.306Z,102756.70
2018-12-31T04:35:23.077Z,102765.70
2018-12-31T04:37:53.046Z,102760.30
2018-12-31T04:40:23.400Z,102769.28
2018-12-31T04:42:53.111Z,102770.19
2018-12-31T04:45:23.065Z,102772.47
2018-12-31T04:47:53.627Z,102771.95
2018-12-31T04:50:23.659Z,102780.01
2018-12-31T04:52:53.510Z,102782.69
2018-12-31T04:55:24.533Z,102781.84
2018-12-31T04:57:55.079Z,102781.33
2018-12-31T05:00:24.873Z,102787.67
2018-12-31T05:02:54.557Z,102787.70
2018-12-31T05:05:24.172Z,102785.92
2018-12-31T05:07:53.854Z,102790.88
2018-12-31T05:10:24.050Z,102785.05
2018-12-31T05:12:54.361Z,102783.22
2018-12-31T05:15:25.370Z,102786.83
2018-12-31T05:17:55.175Z,102779.16
2018-12-31T05:20:25.220Z,102770.61
2018-12-31T05:22:55.569Z,102762.91
2018-12-31T05:25:26.065Z,102759.79
2018-12-31T05:27:55.936Z,102762.08
2018-12-31T05:30:25.864Z,102767.42
2018-12-31T05:32:56.444Z,102765.65
2018-12-31T05:35:26.283Z,102774.24
2018-12-31T05:37:56.015Z,102765.65
2018-12-31T05:40:26.472Z,102770.13
2018-12-31T05:42:56.340Z,102765.65
2018-12-31T05:45:26.318Z,102766.13
2018-12-31T05:47:56.755Z,102759.79
2018-12-31T05:50:26.578Z,102756.66
2018-12-31T05:52:57.016Z,102766.06
2018-12-31T05:55:26.936Z,102765.65
2018-12-31T05:57:57.183Z,102763.42
2018-12-31T06:00:27.041Z,102767.91
2018-12-31T06:02:56.897Z,102771.95
2018-12-31T06:05:27.142Z,102771.53
2018-12-31T06:07:56.903Z,102780.06
2018-12-31T06:10:26.751Z,102779.16
2018-12-31T06:12:57.343Z,102779.65
2018-12-31T06:15:28.979Z,102788.18
2018-12-31T06:17:59.124Z,102790.88
2018-12-31T06:20:29.249Z,102793.52
2018-12-31T06:22:59.474Z,102795.36
2018-12-31T06:25:29.672Z,102796.65
2018-12-31T06:28:00.712Z,102794.01
2018-12-31T06:30:30.703Z,102801.64
2018-12-31T06:33:01.414Z,102805.60
2018-12-31T06:35:31.917Z,102799.84
2018-12-31T06:38:02.574Z,102794.37
2018-12-31T06:40:32.907Z,102797.55
2018-12-31T06:43:03.095Z,102797.55
2018-12-31T06:45:33.150Z,102800.70
2018-12-31T06:48:02.957Z,102803.83
2018-12-31T06:50:32.770Z,102798.42
2018-12-31T06:53:02.412Z,102787.58
2018-12-31T06:55:32.146Z,102794.79
2018-12-31T06:58:01.878Z,102806.09
2018-12-31T07:00:31.884Z,102812.34
2018-12-31T07:03:01.357Z,102811.91
2018-12-31T07:05:30.966Z,102820.03
2018-12-31T07:08:01.092Z,102827.20
2018-12-31T07:10:30.673Z,102822.67
2018-12-31T07:13:01.273Z,102819.97
2018-12-31T07:15:30.961Z,102824.92
2018-12-31T07:18:00.786Z,102827.63
2018-12-31T07:20:30.442Z,102822.22
2018-12-31T07:23:00.116Z,102834.33
2018-12-31T07:25:30.061Z,102839.73
2018-12-31T07:27:59.741Z,102838.87
2018-12-31T07:30:29.243Z,102839.71
2018-12-31T07:32:59.051Z,102841.99
2018-12-31T07:35:28.822Z,102839.71
2018-12-31T07:37:58.528Z,102830.25
2018-12-31T07:40:28.322Z,102830.25
2018-12-31T07:42:57.801Z,102823.91
2018-12-31T07:45:27.413Z,102816.22
2018-12-31T07:47:57.168Z,102809.97
2018-12-31T07:50:28.196Z,102811.67
2018-12-31T07:52:58.274Z,102805.82
2018-12-31T07:55:28.205Z,102808.52
2018-12-31T07:57:57.810Z,102813.03
2018-12-31T08:00:27.711Z,102819.34
2018-12-31T08:02:57.267Z,102836.50
2018-12-31T08:05:26.982Z,102840.05
2018-12-31T08:07:56.440Z,102840.05
2018-12-31T08:10:26.474Z,102838.69
2018-12-31T08:13:03.236Z,102849.95
2018-12-31T08:15:32.965Z,102849.45
2018-12-31T08:18:03.000Z,102847.67
2018-12-31T08:20:32.620Z,102853.51
2018-12-31T08:23:02.154Z,102864.33
2018-12-31T08:25:32.069Z,102874.63
2018-12-31T08:28:02.370Z,102859.75
2018-12-31T08:30:31.892Z,102860.23
2018-12-31T08:33:01.400Z,102875.53
2018-12-31T08:35:31.335Z,102866.06
2018-12-31T08:38:00.976Z,102862.46
2018-12-31T08:40:30.538Z,102865.14
2018-12-31T08:43:00.120Z,102855.67
2018-12-31T08:45:29.699Z,102860.60
2018-12-31T08:47:59.322Z,102851.62
2018-12-31T08:50:28.912Z,102849.34
2018-12-31T08:52:59.106Z,102851.62
2018-12-31T08:55:28.948Z,102855.16
2018-12-31T08:57:58.632Z,102842.99
2018-12-31T09:00:28.190Z,102844.86
2018-12-31T09:02:57.938Z,102838.03
2018-12-31T09:05:27.927Z,102841.64
2018-12-31T09:07:57.537Z,102839.81
2018-12-31T09:10:27.243Z,102843.84
2018-12-31T09:12:56.905Z,102837.95
2018-12-31T09:15:26.426Z,102836.14
2018-12-31T09:17:56.138Z,102828.03
2018-12-31T09:20:25.623Z,102824.42
2018-12-31T09:22:55.164Z,102822.62
2018-12-31T09:25:24.829Z,102820.34
2018-12-31T09:27:54.457Z,102819.44
2018-12-31T09:30:24.038Z,102823.46
2018-12-31T09:32:53.671Z,102825.23
2018-12-31T09:35:23.242Z,102826.08
2018-12-31T09:37:52.755Z,102821.59
2018-12-31T09:40:22.309Z,102825.66
2018-12-31T09:42:51.881Z,102825.05
2018-12-31T09:45:21.458Z,102828.15
2018-12-31T09:47:51.020Z,102822.68
2018-12-31T09:50:20.594Z,102821.33
2018-12-31T09:52:51.020Z,102825.87
2018-12-31T09:55:21.046Z,102828.06
2018-12-31T09:57:50.856Z,102825.56
2018-12-31T10:00:20.606Z,102819.37
2018-12-31T10:02:50.182Z,102815.80
2018-12-31T10:05:19.780Z,102803.98
2018-12-31T10:07:50.003Z,102787.77
2018-12-31T10:10:19.745Z,102784.14
2018-12-31T10:12:49.264Z,102777.80
2018-12-31T10:15:18.800Z,102768.74
2018-12-31T10:17:48.305Z,102761.53
2018-12-31T10:20:17.888Z,102769.58
2018-12-31T10:22:48.768Z,102779.02
2018-12-31T10:25:18.349Z,102788.49
2018-12-31T10:27:47.882Z,102793.91
2018-12-31T10:30:17.403Z,102795.67
2018-12-31T10:32:47.055Z,102794.77
2018-12-31T10:35:16.996Z,102793.48
2018-12-31T10:37:46.704Z,102801.11
2018-12-31T10:40:16.636Z,102796.61
2018-12-31T10:42:46.941Z,102795.70
2018-12-31T10:45:16.883Z,102804.75
2018-12-31T10:47:46.817Z,102808.81
2018-12-31T10:50:18.414Z,102808.78
2018-12-31T10:52:48.323Z,102812.87
2018-12-31T10:55:18.050Z,102816.91
2018-12-31T10:57:47.817Z,102805.23
2018-12-31T11:00:17.515Z,102800.70
2018-12-31T11:02:47.001Z,102786.72
2018-12-31T11:05:16.539Z,102788.94
2018-12-31T11:07:45.969Z,102784.02
2018-12-31T11:10:15.480Z,102780.82
2018-12-31T11:12:45.166Z,102779.02
2018-12-31T11:15:15.001Z,102775.83
2018-12-31T11:17:44.868Z,102769.97
2018-12-31T11:20:14.449Z,102773.97
2018-12-31T11:22:43.933Z,102765.40
2018-12-31T11:25:13.437Z,102757.28
2018-12-31T11:27:42.942Z,102752.70
2018-12-31T11:30:12.449Z,102752.64
2018-12-31T11:32:41.962Z,102747.64
2018-12-31T11:35:11.474Z,102749.41
2018-12-31T11:37:40.974Z,102754.95
2018-12-31T11:40:10.455Z,102750.38
2018-12-31T11:58:10.843Z,102700.52
2018-12-31T12:00:40.285Z,102708.50
2018-12-31T12:03:09.864Z,102703.98
2018-12-31T12:05:39.307Z,102701.37
2018-12-31T12:08:08.986Z,102702.61
2018-12-31T12:10:38.509Z,102699.72
2018-12-31T12:13:08.161Z,102704.09
2018-12-31T12:15:37.897Z,102699.55
2018-12-31T12:18:07.563Z,102699.09
2018-12-31T12:20:37.087Z,102695.14
2018-12-31T12:23:06.764Z,102681.49
2018-12-31T12:25:36.360Z,102688.37
2018-12-31T12:28:05.858Z,102689.66
2018-12-31T12:30:35.430Z,102682.44
2018-12-31T12:33:05.613Z,102684.76
2018-12-31T12:35:35.079Z,102686.39
2018-12-31T12:38:04.923Z,102680.97
2018-12-31T12:40:34.808Z,102685.59
2018-12-31T12:43:04.719Z,102685.70
2018-12-31T12:45:34.765Z,102685.55
2018-12-31T12:48:04.436Z,102684.66
2018-12-31T12:50:34.526Z,102679.72
2018-12-31T12:53:04.677Z,102681.91
2018-12-31T12:55:34.097Z,102682.25
2018-12-31T12:58:03.672Z,102679.12
2018-12-31T13:00:33.403Z,102676.39
2018-12-31T13:03:02.915Z,102676.59
2018-12-31T13:05:32.580Z,102677.33
2018-12-31T13:08:02.374Z,102674.20
2018-12-31T13:10:32.221Z,102672.36
2018-12-31T13:13:03.104Z,102668.16
2018-12-31T13:15:32.917Z,102661.49
2018-12-31T13:18:02.700Z,102667.25
2018-12-31T13:20:32.481Z,102666.50
2018-12-31T13:23:01.923Z,102670.23
2018-12-31T13:25:31.602Z,102661.08
2018-12-31T13:28:01.393Z,102664.83
2018-12-31T13:30:31.052Z,102663.06
2018-12-31T13:33:00.655Z,102654.83
2018-12-31T13:35:30.262Z,102650.39
2018-12-31T13:38:00.004Z,102647.95
2018-12-31T13:40:29.718Z,102650.03
2018-12-31T13:42:59.153Z,102651.19
2018-12-31T13:45:28.742Z,102646.08
2018-12-31T13:47:58.434Z,102645.77
2018-12-31T13:50:27.944Z,102636.01
2018-12-31T13:52:57.618Z,102639.13
2018-12-31T13:55:27.435Z,102632.88
2018-12-31T13:57:57.086Z,102630.97
2018-12-31T14:00:32.243Z,102633.30
2018-12-31T14:03:01.692Z,102634.02
2018-12-31T14:05:31.209Z,102630.45
2018-12-31T14:08:00.958Z,102633.19
2018-12-31T14:10:37.941Z,102635.48
2018-12-31T14:13:07.606Z,102633.08
2018-12-31T14:15:37.424Z,102631.16
2018-12-31T14:18:06.970Z,102634.70
2018-12-31T14:20:36.995Z,102638.45
2018-12-31T14:23:06.757Z,102634.44
2018-12-31T14:25:36.392Z,102636.16
2018-12-31T14:28:06.107Z,102633.08
2018-12-31T14:30:35.752Z,102630.86
2018-12-31T14:33:05.330Z,102640.27
2018-12-31T14:35:35.309Z,102641.20
2018-12-31T14:38:04.784Z,102641.58
2018-12-31T14:40:34.336Z,102637.21
2018-12-31T14:43:03.782Z,102631.73
2018-12-31T14:45:33.276Z,102636.62
2018-12-31T14:48:03.349Z,102638.39
2018-12-31T14:50:33.027Z,102631.38
2018-12-31T14:53:02.671Z,102625.13
2018-12-31T14:55:32.224Z,102623.89
2018-12-31T14:58:01.841Z,102624.00
2018-12-31T15:00:31.337Z,102618.37
2018-12-31T15:03:00.777Z,102608.17
2018-12-31T15:05:30.299Z,102618.92
2018-12-31T15:07:59.799Z,102617.75
2018-12-31T15:10:29.622Z,102615.09
2018-12-31T15:12:59.367Z,102620.50
2018-12-31T15:15:28.991Z,102615.61
2018-12-31T15:17:58.647Z,102618.91
2018-12-31T15:20:28.058Z,102622.14
2018-12-31T15:22:57.572Z,102620.68
2018-12-31T15:25:27.231Z,102620.48
2018-12-31T15:27:56.836Z,102614.80
2018-12-31T15:30:26.318Z,102613.13
2018-12-31T15:32:55.975Z,102603.09
2018-12-31T15:35:25.911Z,102601.89
2018-12-31T15:37:55.375Z,102615.15
2018-12-31T15:40:24.977Z,102613.90
2018-12-31T15:42:54.635Z,102612.09
2018-12-31T15:45:24.209Z,102622.63
2018-12-31T15:47:59.743Z,102621.55
2018-12-31T15:50:29.215Z,102630.17
2018-12-31T15:52:58.833Z,102618.55
2018-12-31T15:55:28.527Z,102621.73
2018-12-31T15:57:58.115Z,102622.36
2018-12-31T16:00:27.784Z,102624.58
2018-12-31T16:02:57.434Z,102614.44
2018-12-31T16:05:39.315Z,102605.59
2018-12-31T16:08:15.314Z,102604.69
2018-12-31T16:10:44.899Z,102615.83
2018-12-31T16:13:14.423Z,102608.72
2018-12-31T16:15:43.884Z,102597.06
2018-12-31T16:18:13.429Z,102588.95
2018-12-31T16:20:43.124Z,102596.87
2018-12-31T16:23:12.569Z,102594.00
2018-12-31T16:25:42.195Z,102589.17
2018-12-31T16:28:11.792Z,102577.03
2018-12-31T16:30:41.225Z,102585.44
2018-12-31T16:33:10.794Z,102586.48
2018-12-31T16:35:40.209Z,102584.93
2018-12-31T16:38:09.797Z,102577.68
2018-12-31T16:40:39.267Z,102574.95
2018-12-31T16:43:08.837Z,102575.36
2018-12-31T16:45:38.273Z,102562.45
2018-12-31T16:48:07.793Z,102569.16
2018-12-31T16:50:37.190Z,102570.89
2018-12-31T16:53:06.802Z,102567.77
2018-12-31T16:55:36.666Z,102560.83
2018-12-31T16:58:06.184Z,102557.88
2018-12-31T17:00:35.918Z,102561.00
2018-12-31T17:03:07.367Z,102562.25
2018-12-31T17:05:36.899Z,102569.16
2018-12-31T17:08:07.004Z,102571.17
2018-12-31T17:10:36.610Z,102567.42
2018-12-31T17:13:06.159Z,102573.35
2018-12-31T17:15:35.851Z,102571.58
2018-12-31T17:18:05.520Z,102572.45
2018-12-31T17:20:35.313Z,102555.94
2018-12-31T17:23:04.729Z,102562.36
2018-12-31T17:25:34.625Z,102559.58
2018-12-31T17:28:04.393Z,102550.53
2018-12-31T17:30:34.455Z,102562.08
2018-12-31T17:33:04.274Z,102549.48
2018-12-31T17:35:34.219Z,102539.77
2018-12-31T17:38:04.299Z,102534.28
2018-12-31T17:40:33.763Z,102536.98
2018-12-31T17:43:03.506Z,102536.98
2018-12-31T17:45:35.085Z,102535.00
2018-12-31T17:48:04.547Z,102533.65
2018-12-31T17:50:34.075Z,102539.37
2018-12-31T17:53:03.654Z,102535.31
2018-12-31T17:55:33.117Z,102534.89
2018-12-31T17:58:02.623Z,102529.33
2018-12-31T18:00:32.147Z,102532.15
2018-12-31T18:03:01.689Z,102528.39
2018-12-31T18:05:31.133Z,102522.56
2018-12-31T18:08:00.626Z,102536.09
2018-12-31T18:10:30.166Z,102527.49
2018-12-31T18:12:59.663Z,102522.56
2018-12-31T18:15:29.153Z,102524.34
2018-12-31T18:17:58.613Z,102521.63
2018-12-31T18:20:28.088Z,102527.45
2018-12-31T18:22:57.590Z,102519.48
2018-12-31T18:25:27.028Z,102522.15
2018-12-31T18:27:56.507Z,102523.43
2018-12-31T18:30:25.913Z,102526.78
2018-12-31T18:32:55.837Z,102518.59
2018-12-31T18:35:25.559Z,102510.62
2018-12-31T18:37:55.091Z,102510.95
2018-12-31T18:40:24.541Z,102517.95
2018-12-31T18:42:54.044Z,102515.20
2018-12-31T18:45:23.769Z,102510.73
2018-12-31T18:47:53.335Z,102505.77
2018-12-31T18:50:22.813Z,102503.13
2018-12-31T18:52:52.253Z,102504.19
2018-12-31T18:55:21.719Z,102510.24
2018-12-31T18:57:51.517Z,102502.61
2018-12-31T19:00:21.245Z,102498.66
2018-12-31T19:02:50.709Z,102498.66
2018-12-31T19:05:20.209Z,102486.10
2018-12-31T19:07:49.739Z,102477.38
2018-12-31T19:10:19.301Z,102473.70
2018-12-31T19:12:48.851Z,102462.46
2018-12-31T19:15:18.472Z,102457.13
2018-12-31T19:17:48.004Z,102464.45
2018-12-31T19:20:17.622Z,102456.55
2018-12-31T19:22:47.227Z,102455.20
2018-12-31T19:25:16.770Z,102461.03
2018-12-31T19:27:46.213Z,102450.28
2018-12-31T19:30:15.721Z,102440.70
2018-12-31T19:32:45.179Z,102451.30
2018-12-31T19:35:14.764Z,102448.28
2018-12-31T19:37:44.529Z,102451.11
2018-12-31T19:40:14.222Z,102451.33
2018-12-31T19:42:43.680Z,102455.31
2018-12-31T19:45:13.230Z,102444.23
2018-12-31T19:47:42.686Z,102456.66
2018-12-31T19:50:12.332Z,102446.86
2018-12-31T19:52:41.796Z,102436.56
2018-12-31T19:55:11.284Z,102418.27
2018-12-31T19:57:40.780Z,102419.99
2018-12-31T20:00:10.314Z,102415.97
2018-12-31T20:02:39.910Z,102407.74
2018-12-31T20:05:09.415Z,102397.03
2018-12-31T20:07:38.930Z,102396.73
2018-12-31T20:10:08.528Z,102391.63
2018-12-31T20:12:37.959Z,102397.15
2018-12-31T20:15:07.504Z,102394.45
2018-12-31T20:17:37.096Z,102393.50
2018-12-31T20:20:06.534Z,102395.13
2018-12-31T20:22:36.051Z,102395.23
2018-12-31T20:25:05.645Z,102398.98
2018-12-31T20:27:35.128Z,102401.58
2018-12-31T20:30:04.964Z,102395.91
2018-12-31T20:32:34.518Z,102391.02
2018-12-31T20:35:03.984Z,102389.14
2018-12-31T20:37:33.681Z,102381.41
2018-12-31T20:40:03.297Z,102381.10
2018-12-31T20:42:32.823Z,102378.10
2018-12-31T20:45:04.336Z,102379.45
2018-12-31T20:47:33.914Z,102380.47
2018-12-31T20:50:05.155Z,102379.75
2018-12-31T20:52:34.666Z,102372.69
2018-12-31T20:55:04.382Z,102370.41
2018-12-31T20:57:33.861Z,102361.69
2018-12-31T21:00:03.512Z,102358.23
2018-12-31T21:02:33.547Z,102364.05
2018-12-31T21:05:03.011Z,102371.30
2018-12-31T21:07:32.498Z,102359.80
2018-12-31T21:10:02.073Z,102360.28
2018-12-31T21:12:31.586Z,102358.94
2018-12-31T21:15:01.446Z,102357.47
2018-12-31T21:17:30.992Z,102351.47
2018-12-31T21:20:00.443Z,102343.03
2018-12-31T21:22:30.043Z,102327.33
2018-12-31T21:24:59.587Z,102320.57
2018-12-31T21:27:29.507Z,102318.55
2018-12-31T21:29:59.033Z,102317.08
2018-12-31T21:32:35.591Z,102314.13
2018-12-31T21:35:07.407Z,102308.59
2018-12-31T21:37:38.995Z,102306.92
2018-12-31T21:40:09.060Z,102312.94
2018-12-31T21:42:38.533Z,102294.45
2018-12-31T21:45:08.421Z,102297.23
2018-12-31T21:47:38.145Z,102286.91
2018-12-31T21:50:07.600Z,102280.88
2018-12-31T21:52:37.168Z,102267.73
2018-12-31T21:55:06.916Z,102261.87
2018-12-31T21:57:36.465Z,102260.52
2018-12-31T22:00:08.370Z,102248.43
2018-12-31T22:02:38.171Z,102248.02
2018-12-31T22:05:07.687Z,102244.20
2018-12-31T22:07:37.129Z,102239.49
2018-12-31T22:10:06.695Z,102240.92
2018-12-31T22:12:36.150Z,102236.70
2018-12-31T22:15:07.468Z,102235.27
2018-12-31T22:17:36.884Z,102214.86
2018-12-31T22:20:08.729Z,102212.52
2018-12-31T22:22:38.215Z,102215.92
2018-12-31T22:25:07.748Z,102210.35
2018-12-31T22:27:37.340Z,102193.92
2018-12-31T22:30:07.703Z,102190.48
2018-12-31T22:32:37.257Z,102184.88
2018-12-31T22:35:06.764Z,102180.23
2018-12-31T22:37:36.337Z,102176.95
2018-12-31T22:40:06.016Z,102168.23
2018-12-31T22:42:35.492Z,102159.91
2018-12-31T22:45:05.816Z,102145.24
2018-12-31T22:47:35.306Z,102146.55
2018-12-31T22:50:07.491Z,102146.02
2018-12-31T22:52:37.289Z,102146.30
2018-12-31T22:55:06.868Z,102142.03
2018-12-31T22:57:36.379Z,102126.50
2018-12-31T23:00:08.814Z,102132.23
2018-12-31T23:02:38.752Z,102120.06
2018-12-31T23:05:08.845Z,102115.47
2018-12-31T23:07:38.531Z,102111.86
2018-12-31T23:10:09.260Z,102109.03
2018-12-31T23:12:39.141Z,102110.66
2018-12-31T23:15:15.964Z,102114.80
2018-12-31T23:17:46.713Z,102107.22
2018-12-31T23:20:16.454Z,102112.25
2018-12-31T23:22:46.019Z,102104.13
2018-12-31T23:25:16.201Z,102095.25
2018-12-31T23:28:02.982Z,102101.47
2018-12-31T23:30:36.599Z,102097.97
2018-12-31T23:33:11.982Z,102094.66
2018-12-31T23:35:52.939Z,102080.73
2018-12-31T23:38:49.753Z,102078.16
2018-12-31T23:41:23.433Z,102075.52
2018-12-31T23:47:48.433Z,102068.47
2018-12-31T23:49:39.933Z,102065.89
2018-12-31T23:52:13.737Z,102056.03
2018-12-31T23:55:00.043Z,102063.59
2018-12-31T23:57:49.145Z,102054.00
